sensor_id;sensor_type;location;lat;lon;timestamp;P1;durP1;ratioP1;P2;durP2;ratioP2
45049;SDS011;61798;48.048;-1.928;2022-08-01T00:00:43;8.07;;;3.03;;
45049;SDS011;61798;48.048;-1.928;2022-08-01T00:02:49;5.88;;;2.63;;
45049;SDS011;61798;48.048;-1.928;2022-08-01T00:04:55;5.32;;;2.53;;
45049;SDS011;61798;48.048;-1.928;2022-08-01T00:07:01;7.15;;;2.70;;
45049;SDS011;61798;48.048;-1.928;2022-08-01T00:09:07;5.35;;;2.88;;
45049;SDS011;61798;48.048;-1.928;2022-08-01T00:11:13;5.28;;;2.47;;
45049;SDS011;61798;48.048;-1.928;2022-08-01T00:13:19;4.22;;;2.45;;
45049;SDS011;61798;48.048;-1.928;2022-08-01T00:15:25;7.10;;;2.70;;
45049;SDS011;61798;48.048;-1.928;2022-08-01T00:17:31;6.60;;;3.00;;
45049;SDS011;61798;48.048;-1.928;2022-08-01T00:19:37;5.40;;;2.45;;
45049;SDS011;61798;48.048;-1.928;2022-08-01T00:21:43;4.85;;;2.55;;
45049;SDS011;61798;48.048;-1.928;2022-08-01T00:23:49;8.73;;;2.50;;
45049;SDS011;61798;48.048;-1.928;2022-08-01T00:25:55;6.60;;;3.22;;
45049;SDS011;61798;48.048;-1.928;2022-08-01T00:28:01;5.90;;;2.42;;
45049;SDS011;61798;48.048;-1.928;2022-08-01T00:30:07;7.88;;;3.03;;
45049;SDS011;61798;48.048;-1.928;2022-08-01T00:32:13;6.97;;;3.03;;
45049;SDS011;61798;48.048;-1.928;2022-08-01T00:34:19;4.05;;;2.40;;
45049;SDS011;61798;48.048;-1.928;2022-08-01T00:36:25;6.07;;;2.70;;
45049;SDS011;61798;48.048;-1.928;2022-08-01T00:38:31;6.20;;;2.90;;
45049;SDS011;61798;48.048;-1.928;2022-08-01T00:40:37;5.35;;;2.53;;
45049;SDS011;61798;48.048;-1.928;2022-08-01T00:42:43;7.60;;;2.45;;
45049;SDS011;61798;48.048;-1.928;2022-08-01T00:44:49;5.82;;;2.80;;
45049;SDS011;61798;48.048;-1.928;2022-08-01T00:46:55;5.40;;;2.55;;
45049;SDS011;61798;48.048;-1.928;2022-08-01T00:49:02;5.70;;;2.65;;
45049;SDS011;61798;48.048;-1.928;2022-08-01T00:51:08;7.28;;;2.17;;
45049;SDS011;61798;48.048;-1.928;2022-08-01T00:53:14;7.28;;;2.75;;
45049;SDS011;61798;48.048;-1.928;2022-08-01T00:55:20;4.72;;;2.45;;
45049;SDS011;61798;48.048;-1.928;2022-08-01T00:57:27;5.20;;;2.20;;
45049;SDS011;61798;48.048;-1.928;2022-08-01T00:59:34;6.15;;;3.00;;
45049;SDS011;61798;48.048;-1.928;2022-08-01T01:01:41;5.75;;;2.58;;
45049;SDS011;61798;48.048;-1.928;2022-08-01T01:03:48;5.53;;;2.30;;
45049;SDS011;61798;48.048;-1.928;2022-08-01T01:08:32;4.88;;;2.58;;
45049;SDS011;61798;48.048;-1.928;2022-08-01T01:10:50;6.97;;;2.42;;
45049;SDS011;61798;48.048;-1.928;2022-08-01T01:13:05;5.00;;;2.38;;
45049;SDS011;61798;48.048;-1.928;2022-08-01T01:15:34;6.53;;;2.65;;
45049;SDS011;61798;48.048;-1.928;2022-08-01T01:20:37;4.90;;;2.42;;
45049;SDS011;61798;48.048;-1.928;2022-08-01T01:23:01;5.00;;;2.47;;
45049;SDS011;61798;48.048;-1.928;2022-08-01T01:27:46;4.82;;;2.40;;
45049;SDS011;61798;48.048;-1.928;2022-08-01T01:29:54;5.90;;;2.70;;
45049;SDS011;61798;48.048;-1.928;2022-08-01T01:32:04;4.93;;;2.50;;
45049;SDS011;61798;48.048;-1.928;2022-08-01T01:34:13;5.07;;;2.33;;
45049;SDS011;61798;48.048;-1.928;2022-08-01T01:36:21;6.95;;;2.20;;
45049;SDS011;61798;48.048;-1.928;2022-08-01T01:38:32;3.72;;;2.28;;
45049;SDS011;61798;48.048;-1.928;2022-08-01T01:40:41;4.10;;;2.20;;
45049;SDS011;61798;48.048;-1.928;2022-08-01T01:42:50;4.07;;;2.33;;
45049;SDS011;61798;48.048;-1.928;2022-08-01T01:44:57;3.70;;;2.03;;
45049;SDS011;61798;48.048;-1.928;2022-08-01T01:47:05;4.32;;;2.38;;
45049;SDS011;61798;48.048;-1.928;2022-08-01T01:49:11;3.70;;;2.13;;
45049;SDS011;61798;48.048;-1.928;2022-08-01T01:51:20;3.20;;;2.15;;
45049;SDS011;61798;48.048;-1.928;2022-08-01T01:53:28;3.80;;;1.90;;
45049;SDS011;61798;48.048;-1.928;2022-08-01T01:55:38;3.10;;;2.15;;
45049;SDS011;61798;48.048;-1.928;2022-08-01T01:57:46;2.85;;;2.10;;
45049;SDS011;61798;48.048;-1.928;2022-08-01T01:59:53;4.18;;;2.00;;
45049;SDS011;61798;48.048;-1.928;2022-08-01T02:02:02;3.53;;;2.30;;
45049;SDS011;61798;48.048;-1.928;2022-08-01T02:04:09;3.30;;;2.22;;
45049;SDS011;61798;48.048;-1.928;2022-08-01T02:06:16;6.45;;;2.33;;
45049;SDS011;61798;48.048;-1.928;2022-08-01T02:08:23;4.63;;;2.10;;
45049;SDS011;61798;48.048;-1.928;2022-08-01T02:10:30;4.65;;;2.22;;
45049;SDS011;61798;48.048;-1.928;2022-08-01T02:12:41;6.18;;;2.22;;
45049;SDS011;61798;48.048;-1.928;2022-08-01T02:14:50;2.78;;;1.88;;
45049;SDS011;61798;48.048;-1.928;2022-08-01T02:17:00;3.35;;;1.90;;
45049;SDS011;61798;48.048;-1.928;2022-08-01T02:19:09;3.33;;;1.90;;
45049;SDS011;61798;48.048;-1.928;2022-08-01T02:21:16;3.67;;;2.05;;
45049;SDS011;61798;48.048;-1.928;2022-08-01T02:23:46;2.78;;;2.30;;
45049;SDS011;61798;48.048;-1.928;2022-08-01T02:25:53;7.07;;;2.30;;
45049;SDS011;61798;48.048;-1.928;2022-08-01T02:28:04;3.28;;;1.90;;
45049;SDS011;61798;48.048;-1.928;2022-08-01T02:30:16;3.58;;;2.10;;
45049;SDS011;61798;48.048;-1.928;2022-08-01T02:32:24;3.50;;;1.92;;
45049;SDS011;61798;48.048;-1.928;2022-08-01T02:34:35;3.65;;;1.98;;
45049;SDS011;61798;48.048;-1.928;2022-08-01T02:36:41;3.13;;;1.92;;
45049;SDS011;61798;48.048;-1.928;2022-08-01T02:38:51;2.20;;;1.80;;
45049;SDS011;61798;48.048;-1.928;2022-08-01T02:41:07;4.35;;;2.05;;
45049;SDS011;61798;48.048;-1.928;2022-08-01T02:43:16;2.92;;;1.70;;
45049;SDS011;61798;48.048;-1.928;2022-08-01T02:45:26;2.97;;;1.90;;
45049;SDS011;61798;48.048;-1.928;2022-08-01T02:47:32;2.78;;;2.00;;
45049;SDS011;61798;48.048;-1.928;2022-08-01T02:49:40;2.55;;;1.60;;
45049;SDS011;61798;48.048;-1.928;2022-08-01T02:51:49;4.18;;;1.83;;
45049;SDS011;61798;48.048;-1.928;2022-08-01T02:53:58;2.85;;;1.90;;
45049;SDS011;61798;48.048;-1.928;2022-08-01T02:56:07;3.05;;;1.70;;
45049;SDS011;61798;48.048;-1.928;2022-08-01T02:58:14;2.80;;;1.60;;
45049;SDS011;61798;48.048;-1.928;2022-08-01T03:00:21;2.80;;;2.03;;
45049;SDS011;61798;48.048;-1.928;2022-08-01T03:02:29;3.08;;;1.75;;
45049;SDS011;61798;48.048;-1.928;2022-08-01T03:04:38;3.90;;;1.92;;
45049;SDS011;61798;48.048;-1.928;2022-08-01T03:06:46;2.38;;;1.80;;
45049;SDS011;61798;48.048;-1.928;2022-08-01T03:08:53;3.08;;;1.80;;
45049;SDS011;61798;48.048;-1.928;2022-08-01T03:11:00;3.42;;;2.00;;
45049;SDS011;61798;48.048;-1.928;2022-08-01T03:13:08;3.72;;;1.80;;
45049;SDS011;61798;48.048;-1.928;2022-08-01T03:15:17;2.55;;;1.60;;
45049;SDS011;61798;48.048;-1.928;2022-08-01T03:17:25;3.25;;;1.70;;
45049;SDS011;61798;48.048;-1.928;2022-08-01T03:19:33;4.18;;;2.00;;
45049;SDS011;61798;48.048;-1.928;2022-08-01T03:21:40;3.90;;;2.35;;
45049;SDS011;61798;48.048;-1.928;2022-08-01T03:23:49;3.95;;;1.80;;
45049;SDS011;61798;48.048;-1.928;2022-08-01T03:26:02;3.13;;;1.98;;
45049;SDS011;61798;48.048;-1.928;2022-08-01T03:28:12;2.88;;;1.60;;
45049;SDS011;61798;48.048;-1.928;2022-08-01T03:30:19;3.15;;;1.70;;
45049;SDS011;61798;48.048;-1.928;2022-08-01T03:32:27;2.50;;;1.63;;
45049;SDS011;61798;48.048;-1.928;2022-08-01T03:34:35;2.85;;;1.60;;
45049;SDS011;61798;48.048;-1.928;2022-08-01T03:36:49;2.00;;;1.60;;
45049;SDS011;61798;48.048;-1.928;2022-08-01T03:39:02;1.60;;;1.40;;
45049;SDS011;61798;48.048;-1.928;2022-08-01T03:41:12;3.45;;;1.65;;
45049;SDS011;61798;48.048;-1.928;2022-08-01T03:43:30;2.05;;;1.67;;
45049;SDS011;61798;48.048;-1.928;2022-08-01T03:45:43;2.70;;;1.17;;
45049;SDS011;61798;48.048;-1.928;2022-08-01T03:47:56;4.75;;;1.65;;
45049;SDS011;61798;48.048;-1.928;2022-08-01T03:50:05;2.28;;;1.17;;
45049;SDS011;61798;48.048;-1.928;2022-08-01T03:52:13;2.45;;;1.30;;
45049;SDS011;61798;48.048;-1.928;2022-08-01T03:54:21;3.28;;;1.17;;
45049;SDS011;61798;48.048;-1.928;2022-08-01T03:56:29;1.35;;;1.25;;
45049;SDS011;61798;48.048;-1.928;2022-08-01T03:58:38;7.43;;;1.38;;
45049;SDS011;61798;48.048;-1.928;2022-08-01T04:00:45;1.20;;;1.00;;
45049;SDS011;61798;48.048;-1.928;2022-08-01T04:02:52;1.42;;;1.15;;
45049;SDS011;61798;48.048;-1.928;2022-08-01T04:04:58;2.20;;;1.00;;
45049;SDS011;61798;48.048;-1.928;2022-08-01T04:07:04;1.15;;;1.02;;
45049;SDS011;61798;48.048;-1.928;2022-08-01T04:09:11;1.38;;;1.20;;
45049;SDS011;61798;48.048;-1.928;2022-08-01T04:11:17;2.60;;;1.10;;
45049;SDS011;61798;48.048;-1.928;2022-08-01T04:13:24;3.40;;;1.13;;
45049;SDS011;61798;48.048;-1.928;2022-08-01T04:15:30;3.03;;;1.00;;
45049;SDS011;61798;48.048;-1.928;2022-08-01T04:17:36;1.55;;;1.20;;
45049;SDS011;61798;48.048;-1.928;2022-08-01T04:19:42;1.55;;;1.10;;
45049;SDS011;61798;48.048;-1.928;2022-08-01T04:21:50;1.42;;;1.20;;
45049;SDS011;61798;48.048;-1.928;2022-08-01T04:23:58;1.60;;;1.17;;
45049;SDS011;61798;48.048;-1.928;2022-08-01T04:26:10;1.55;;;1.00;;
45049;SDS011;61798;48.048;-1.928;2022-08-01T04:28:18;2.20;;;1.00;;
45049;SDS011;61798;48.048;-1.928;2022-08-01T04:30:27;1.27;;;0.82;;
45049;SDS011;61798;48.048;-1.928;2022-08-01T04:32:37;1.95;;;0.82;;
45049;SDS011;61798;48.048;-1.928;2022-08-01T04:34:45;2.42;;;1.05;;
45049;SDS011;61798;48.048;-1.928;2022-08-01T04:36:54;2.20;;;0.98;;
45049;SDS011;61798;48.048;-1.928;2022-08-01T04:39:01;1.02;;;0.80;;
45049;SDS011;61798;48.048;-1.928;2022-08-01T04:41:09;1.67;;;0.60;;
45049;SDS011;61798;48.048;-1.928;2022-08-01T04:43:17;1.17;;;1.05;;
45049;SDS011;61798;48.048;-1.928;2022-08-01T04:45:24;3.15;;;1.20;;
45049;SDS011;61798;48.048;-1.928;2022-08-01T04:47:31;0.82;;;0.70;;
45049;SDS011;61798;48.048;-1.928;2022-08-01T04:49:38;1.33;;;0.75;;
45049;SDS011;61798;48.048;-1.928;2022-08-01T04:51:54;1.25;;;0.90;;
45049;SDS011;61798;48.048;-1.928;2022-08-01T04:54:02;1.30;;;0.88;;
45049;SDS011;61798;48.048;-1.928;2022-08-01T04:56:09;0.65;;;0.60;;
45049;SDS011;61798;48.048;-1.928;2022-08-01T04:58:18;0.85;;;0.68;;
45049;SDS011;61798;48.048;-1.928;2022-08-01T05:00:24;1.83;;;0.88;;
45049;SDS011;61798;48.048;-1.928;2022-08-01T05:02:30;0.80;;;0.80;;
45049;SDS011;61798;48.048;-1.928;2022-08-01T05:04:36;1.30;;;0.93;;
45049;SDS011;61798;48.048;-1.928;2022-08-01T05:06:43;0.70;;;0.70;;
45049;SDS011;61798;48.048;-1.928;2022-08-01T05:08:48;0.80;;;0.80;;
45049;SDS011;61798;48.048;-1.928;2022-08-01T05:10:55;2.30;;;0.93;;
45049;SDS011;61798;48.048;-1.928;2022-08-01T05:13:01;2.28;;;1.33;;
45049;SDS011;61798;48.048;-1.928;2022-08-01T05:15:07;0.82;;;0.82;;
45049;SDS011;61798;48.048;-1.928;2022-08-01T05:17:13;1.48;;;0.90;;
45049;SDS011;61798;48.048;-1.928;2022-08-01T05:19:20;1.60;;;0.88;;
45049;SDS011;61798;48.048;-1.928;2022-08-01T05:21:26;1.35;;;0.90;;
45049;SDS011;61798;48.048;-1.928;2022-08-01T05:23:32;2.17;;;0.90;;
45049;SDS011;61798;48.048;-1.928;2022-08-01T05:25:38;1.73;;;0.80;;
45049;SDS011;61798;48.048;-1.928;2022-08-01T05:27:44;0.93;;;0.85;;
45049;SDS011;61798;48.048;-1.928;2022-08-01T05:29:50;1.60;;;0.90;;
45049;SDS011;61798;48.048;-1.928;2022-08-01T05:31:56;1.75;;;0.80;;
45049;SDS011;61798;48.048;-1.928;2022-08-01T05:34:04;1.05;;;0.75;;
45049;SDS011;61798;48.048;-1.928;2022-08-01T05:36:11;2.95;;;2.13;;
45049;SDS011;61798;48.048;-1.928;2022-08-01T05:38:20;1.33;;;0.90;;
45049;SDS011;61798;48.048;-1.928;2022-08-01T05:40:27;1.40;;;0.80;;
45049;SDS011;61798;48.048;-1.928;2022-08-01T05:42:37;2.78;;;0.90;;
45049;SDS011;61798;48.048;-1.928;2022-08-01T05:44:44;1.23;;;0.65;;
45049;SDS011;61798;48.048;-1.928;2022-08-01T05:46:51;1.20;;;0.45;;
45049;SDS011;61798;48.048;-1.928;2022-08-01T05:48:59;1.13;;;0.63;;
45049;SDS011;61798;48.048;-1.928;2022-08-01T05:51:06;1.10;;;0.60;;
45049;SDS011;61798;48.048;-1.928;2022-08-01T05:53:13;0.68;;;0.52;;
45049;SDS011;61798;48.048;-1.928;2022-08-01T05:55:20;1.77;;;1.00;;
45049;SDS011;61798;48.048;-1.928;2022-08-01T05:57:30;2.50;;;0.60;;
45049;SDS011;61798;48.048;-1.928;2022-08-01T05:59:38;0.52;;;0.50;;
45049;SDS011;61798;48.048;-1.928;2022-08-01T06:01:43;0.68;;;0.65;;
45049;SDS011;61798;48.048;-1.928;2022-08-01T06:03:52;1.38;;;0.80;;
45049;SDS011;61798;48.048;-1.928;2022-08-01T06:06:03;0.52;;;0.50;;
45049;SDS011;61798;48.048;-1.928;2022-08-01T06:08:11;0.52;;;0.52;;
45049;SDS011;61798;48.048;-1.928;2022-08-01T06:10:17;1.08;;;0.70;;
45049;SDS011;61798;48.048;-1.928;2022-08-01T06:12:24;4.82;;;0.65;;
45049;SDS011;61798;48.048;-1.928;2022-08-01T06:14:33;5.07;;;0.93;;
45049;SDS011;61798;48.048;-1.928;2022-08-01T06:16:40;4.00;;;0.70;;
45049;SDS011;61798;48.048;-1.928;2022-08-01T06:18:49;2.17;;;0.68;;
45049;SDS011;61798;48.048;-1.928;2022-08-01T06:20:59;1.77;;;0.60;;
45049;SDS011;61798;48.048;-1.928;2022-08-01T06:23:17;1.30;;;0.50;;
45049;SDS011;61798;48.048;-1.928;2022-08-01T06:25:23;2.50;;;0.70;;
45049;SDS011;61798;48.048;-1.928;2022-08-01T06:27:33;3.28;;;0.60;;
45049;SDS011;61798;48.048;-1.928;2022-08-01T06:29:45;0.85;;;0.63;;
45049;SDS011;61798;48.048;-1.928;2022-08-01T06:31:54;0.60;;;0.60;;
45049;SDS011;61798;48.048;-1.928;2022-08-01T06:34:01;0.50;;;0.50;;
45049;SDS011;61798;48.048;-1.928;2022-08-01T06:36:11;2.22;;;0.43;;
45049;SDS011;61798;48.048;-1.928;2022-08-01T06:38:18;0.70;;;0.63;;
45049;SDS011;61798;48.048;-1.928;2022-08-01T06:40:26;0.93;;;0.57;;
45049;SDS011;61798;48.048;-1.928;2022-08-01T06:42:32;1.50;;;0.50;;
45049;SDS011;61798;48.048;-1.928;2022-08-01T06:44:42;0.40;;;0.40;;
45049;SDS011;61798;48.048;-1.928;2022-08-01T06:46:54;0.88;;;0.60;;
45049;SDS011;61798;48.048;-1.928;2022-08-01T06:49:00;1.23;;;0.90;;
45049;SDS011;61798;48.048;-1.928;2022-08-01T06:51:10;1.95;;;1.05;;
45049;SDS011;61798;48.048;-1.928;2022-08-01T06:53:21;0.75;;;0.60;;
45049;SDS011;61798;48.048;-1.928;2022-08-01T06:55:31;0.60;;;0.60;;
45049;SDS011;61798;48.048;-1.928;2022-08-01T06:57:49;2.50;;;0.50;;
45049;SDS011;61798;48.048;-1.928;2022-08-01T07:00:00;0.77;;;0.57;;
45049;SDS011;61798;48.048;-1.928;2022-08-01T07:02:09;1.27;;;0.60;;
45049;SDS011;61798;48.048;-1.928;2022-08-01T07:04:15;1.23;;;0.60;;
45049;SDS011;61798;48.048;-1.928;2022-08-01T07:06:30;0.68;;;0.68;;
45049;SDS011;61798;48.048;-1.928;2022-08-01T07:08:40;9.30;;;1.58;;
45049;SDS011;61798;48.048;-1.928;2022-08-01T07:10:47;0.60;;;0.60;;
45049;SDS011;61798;48.048;-1.928;2022-08-01T07:12:55;10.38;;;1.10;;
45049;SDS011;61798;48.048;-1.928;2022-08-01T07:15:11;0.80;;;0.80;;
45049;SDS011;61798;48.048;-1.928;2022-08-01T07:17:18;0.70;;;0.70;;
45049;SDS011;61798;48.048;-1.928;2022-08-01T07:19:28;3.00;;;0.70;;
45049;SDS011;61798;48.048;-1.928;2022-08-01T07:21:38;2.70;;;0.90;;
45049;SDS011;61798;48.048;-1.928;2022-08-01T07:23:46;2.78;;;1.00;;
45049;SDS011;61798;48.048;-1.928;2022-08-01T07:25:53;4.68;;;0.55;;
45049;SDS011;61798;48.048;-1.928;2022-08-01T07:27:59;1.10;;;0.70;;
45049;SDS011;61798;48.048;-1.928;2022-08-01T07:30:07;2.28;;;0.82;;
45049;SDS011;61798;48.048;-1.928;2022-08-01T07:32:15;3.30;;;1.10;;
45049;SDS011;61798;48.048;-1.928;2022-08-01T07:34:23;5.47;;;0.95;;
45049;SDS011;61798;48.048;-1.928;2022-08-01T07:36:33;13.57;;;1.73;;
45049;SDS011;61798;48.048;-1.928;2022-08-01T07:38:44;58.05;;;5.57;;
45049;SDS011;61798;48.048;-1.928;2022-08-01T07:40:58;16.20;;;1.77;;
45049;SDS011;61798;48.048;-1.928;2022-08-01T07:43:08;8.18;;;1.23;;
45049;SDS011;61798;48.048;-1.928;2022-08-01T07:45:44;4.10;;;0.80;;
45049;SDS011;61798;48.048;-1.928;2022-08-01T07:47:51;1.35;;;0.77;;
45049;SDS011;61798;48.048;-1.928;2022-08-01T07:50:03;7.68;;;1.20;;
45049;SDS011;61798;48.048;-1.928;2022-08-01T07:52:22;1.52;;;0.75;;
45049;SDS011;61798;48.048;-1.928;2022-08-01T07:54:30;1.15;;;0.90;;
45049;SDS011;61798;48.048;-1.928;2022-08-01T07:56:39;0.60;;;0.60;;
45049;SDS011;61798;48.048;-1.928;2022-08-01T07:58:46;1.65;;;0.63;;
45049;SDS011;61798;48.048;-1.928;2022-08-01T08:00:56;2.45;;;0.70;;
45049;SDS011;61798;48.048;-1.928;2022-08-01T08:03:05;1.13;;;0.82;;
45049;SDS011;61798;48.048;-1.928;2022-08-01T08:05:12;77.85;;;5.07;;
45049;SDS011;61798;48.048;-1.928;2022-08-01T08:07:18;3.03;;;0.93;;
45049;SDS011;61798;48.048;-1.928;2022-08-01T08:09:29;21.75;;;2.65;;
45049;SDS011;61798;48.048;-1.928;2022-08-01T08:11:36;2.78;;;0.85;;
45049;SDS011;61798;48.048;-1.928;2022-08-01T08:13:42;1.45;;;0.90;;
45049;SDS011;61798;48.048;-1.928;2022-08-01T08:15:50;6.28;;;0.90;;
45049;SDS011;61798;48.048;-1.928;2022-08-01T08:17:57;5.55;;;1.05;;
45049;SDS011;61798;48.048;-1.928;2022-08-01T08:20:05;1.92;;;0.70;;
45049;SDS011;61798;48.048;-1.928;2022-08-01T08:22:14;1.80;;;0.90;;
45049;SDS011;61798;48.048;-1.928;2022-08-01T08:24:20;4.32;;;0.80;;
45049;SDS011;61798;48.048;-1.928;2022-08-01T08:26:27;2.80;;;1.10;;
45049;SDS011;61798;48.048;-1.928;2022-08-01T08:28:33;1.60;;;0.90;;
45049;SDS011;61798;48.048;-1.928;2022-08-01T08:30:41;1.67;;;0.85;;
45049;SDS011;61798;48.048;-1.928;2022-08-01T08:32:47;1.83;;;0.85;;
45049;SDS011;61798;48.048;-1.928;2022-08-01T08:34:54;0.80;;;0.80;;
45049;SDS011;61798;48.048;-1.928;2022-08-01T08:37:00;3.03;;;0.90;;
45049;SDS011;61798;48.048;-1.928;2022-08-01T08:39:06;3.42;;;0.98;;
45049;SDS011;61798;48.048;-1.928;2022-08-01T08:41:12;122.38;;;8.43;;
45049;SDS011;61798;48.048;-1.928;2022-08-01T08:43:19;78.40;;;4.88;;
45049;SDS011;61798;48.048;-1.928;2022-08-01T08:45:27;11.35;;;1.52;;
45049;SDS011;61798;48.048;-1.928;2022-08-01T08:47:33;4.43;;;1.10;;
45049;SDS011;61798;48.048;-1.928;2022-08-01T08:49:42;1.67;;;1.00;;
45049;SDS011;61798;48.048;-1.928;2022-08-01T08:51:51;8.93;;;1.65;;
45049;SDS011;61798;48.048;-1.928;2022-08-01T08:53:59;5.45;;;1.33;;
45049;SDS011;61798;48.048;-1.928;2022-08-01T08:56:11;10.73;;;1.70;;
45049;SDS011;61798;48.048;-1.928;2022-08-01T08:58:19;1.77;;;0.90;;
45049;SDS011;61798;48.048;-1.928;2022-08-01T09:00:27;6.97;;;1.20;;
45049;SDS011;61798;48.048;-1.928;2022-08-01T09:02:34;12.93;;;2.00;;
45049;SDS011;61798;48.048;-1.928;2022-08-01T09:04:41;2.00;;;1.20;;
45049;SDS011;61798;48.048;-1.928;2022-08-01T09:06:49;1.58;;;0.85;;
45049;SDS011;61798;48.048;-1.928;2022-08-01T09:08:56;2.55;;;1.20;;
45049;SDS011;61798;48.048;-1.928;2022-08-01T09:11:04;1.05;;;0.95;;
45049;SDS011;61798;48.048;-1.928;2022-08-01T09:13:13;6.13;;;1.00;;
45049;SDS011;61798;48.048;-1.928;2022-08-01T09:15:26;1.17;;;1.00;;
45049;SDS011;61798;48.048;-1.928;2022-08-01T09:17:55;2.17;;;1.33;;
45049;SDS011;61798;48.048;-1.928;2022-08-01T09:20:02;1.15;;;0.80;;
45049;SDS011;61798;48.048;-1.928;2022-08-01T09:22:09;0.98;;;0.93;;
45049;SDS011;61798;48.048;-1.928;2022-08-01T09:24:31;2.83;;;0.90;;
45049;SDS011;61798;48.048;-1.928;2022-08-01T09:26:37;3.15;;;0.95;;
45049;SDS011;61798;48.048;-1.928;2022-08-01T09:28:44;1.50;;;0.90;;
45049;SDS011;61798;48.048;-1.928;2022-08-01T09:30:53;4.75;;;1.00;;
45049;SDS011;61798;48.048;-1.928;2022-08-01T09:33:03;2.08;;;0.90;;
45049;SDS011;61798;48.048;-1.928;2022-08-01T09:35:22;1.23;;;1.00;;
45049;SDS011;61798;48.048;-1.928;2022-08-01T09:37:31;1.27;;;0.80;;
45049;SDS011;61798;48.048;-1.928;2022-08-01T09:39:38;0.90;;;0.80;;
45049;SDS011;61798;48.048;-1.928;2022-08-01T09:41:54;1.00;;;0.90;;
45049;SDS011;61798;48.048;-1.928;2022-08-01T09:44:42;0.95;;;0.82;;
45049;SDS011;61798;48.048;-1.928;2022-08-01T09:46:53;1.25;;;0.80;;
45049;SDS011;61798;48.048;-1.928;2022-08-01T09:49:03;2.20;;;0.80;;
45049;SDS011;61798;48.048;-1.928;2022-08-01T09:51:12;1.25;;;0.80;;
45049;SDS011;61798;48.048;-1.928;2022-08-01T09:53:19;0.60;;;0.60;;
45049;SDS011;61798;48.048;-1.928;2022-08-01T09:55:26;3.00;;;0.85;;
45049;SDS011;61798;48.048;-1.928;2022-08-01T09:57:34;1.48;;;0.77;;
45049;SDS011;61798;48.048;-1.928;2022-08-01T09:59:42;1.05;;;0.95;;
45049;SDS011;61798;48.048;-1.928;2022-08-01T10:01:51;1.23;;;0.90;;
45049;SDS011;61798;48.048;-1.928;2022-08-01T10:04:05;1.05;;;0.80;;
45049;SDS011;61798;48.048;-1.928;2022-08-01T10:06:20;0.80;;;0.77;;
45049;SDS011;61798;48.048;-1.928;2022-08-01T10:08:27;1.10;;;1.00;;
45049;SDS011;61798;48.048;-1.928;2022-08-01T10:13:14;0.93;;;0.90;;
45049;SDS011;61798;48.048;-1.928;2022-08-01T10:15:23;1.77;;;1.33;;
45049;SDS011;61798;48.048;-1.928;2022-08-01T10:17:31;2.05;;;1.13;;
45049;SDS011;61798;48.048;-1.928;2022-08-01T10:19:41;1.63;;;0.90;;
45049;SDS011;61798;48.048;-1.928;2022-08-01T10:21:49;1.02;;;0.93;;
45049;SDS011;61798;48.048;-1.928;2022-08-01T10:23:59;1.00;;;0.90;;
45049;SDS011;61798;48.048;-1.928;2022-08-01T10:26:08;1.45;;;1.00;;
45049;SDS011;61798;48.048;-1.928;2022-08-01T10:28:19;1.38;;;0.80;;
45049;SDS011;61798;48.048;-1.928;2022-08-01T10:30:26;1.70;;;1.15;;
45049;SDS011;61798;48.048;-1.928;2022-08-01T10:32:35;1.35;;;1.00;;
45049;SDS011;61798;48.048;-1.928;2022-08-01T10:34:41;0.90;;;0.90;;
45049;SDS011;61798;48.048;-1.928;2022-08-01T10:36:48;1.20;;;1.00;;
45049;SDS011;61798;48.048;-1.928;2022-08-01T10:38:57;1.75;;;1.00;;
45049;SDS011;61798;48.048;-1.928;2022-08-01T10:41:06;2.80;;;0.98;;
45049;SDS011;61798;48.048;-1.928;2022-08-01T10:43:13;2.38;;;1.10;;
45049;SDS011;61798;48.048;-1.928;2022-08-01T10:45:30;0.85;;;0.85;;
45049;SDS011;61798;48.048;-1.928;2022-08-01T10:47:46;1.02;;;0.90;;
45049;SDS011;61798;48.048;-1.928;2022-08-01T10:50:11;2.42;;;1.20;;
45049;SDS011;61798;48.048;-1.928;2022-08-01T10:54:43;1.88;;;1.15;;
45049;SDS011;61798;48.048;-1.928;2022-08-01T10:56:52;2.50;;;0.95;;
45049;SDS011;61798;48.048;-1.928;2022-08-01T10:59:01;1.13;;;0.90;;
45049;SDS011;61798;48.048;-1.928;2022-08-01T11:03:42;4.63;;;1.10;;
45049;SDS011;61798;48.048;-1.928;2022-08-01T11:06:03;1.10;;;1.00;;
45049;SDS011;61798;48.048;-1.928;2022-08-01T11:08:37;3.00;;;1.23;;
45049;SDS011;61798;48.048;-1.928;2022-08-01T11:10:44;3.22;;;1.20;;
45049;SDS011;61798;48.048;-1.928;2022-08-01T11:12:50;1.42;;;0.90;;
45049;SDS011;61798;48.048;-1.928;2022-08-01T11:22:15;1.08;;;0.75;;
45049;SDS011;61798;48.048;-1.928;2022-08-01T11:27:19;0.90;;;0.80;;
45049;SDS011;61798;48.048;-1.928;2022-08-01T11:29:34;1.23;;;0.80;;
45049;SDS011;61798;48.048;-1.928;2022-08-01T11:31:40;0.82;;;0.60;;
45049;SDS011;61798;48.048;-1.928;2022-08-01T11:33:49;1.15;;;0.80;;
45049;SDS011;61798;48.048;-1.928;2022-08-01T11:38:24;0.88;;;0.70;;
45049;SDS011;61798;48.048;-1.928;2022-08-01T11:40:36;1.13;;;0.90;;
45049;SDS011;61798;48.048;-1.928;2022-08-01T11:45:34;0.60;;;0.60;;
45049;SDS011;61798;48.048;-1.928;2022-08-01T11:48:01;0.85;;;0.70;;
45049;SDS011;61798;48.048;-1.928;2022-08-01T11:52:34;1.00;;;0.85;;
45049;SDS011;61798;48.048;-1.928;2022-08-01T11:56:54;1.05;;;0.95;;
45049;SDS011;61798;48.048;-1.928;2022-08-01T11:59:05;1.00;;;0.88;;
45049;SDS011;61798;48.048;-1.928;2022-08-01T12:01:13;1.95;;;1.13;;
45049;SDS011;61798;48.048;-1.928;2022-08-01T12:03:25;1.35;;;0.90;;
45049;SDS011;61798;48.048;-1.928;2022-08-01T12:05:36;4.50;;;1.10;;
45049;SDS011;61798;48.048;-1.928;2022-08-01T12:07:43;1.42;;;1.00;;
45049;SDS011;61798;48.048;-1.928;2022-08-01T12:10:10;4.22;;;1.20;;
45049;SDS011;61798;48.048;-1.928;2022-08-01T12:12:19;2.63;;;1.20;;
45049;SDS011;61798;48.048;-1.928;2022-08-01T12:14:26;1.63;;;1.13;;
45049;SDS011;61798;48.048;-1.928;2022-08-01T12:16:32;1.23;;;1.13;;
45049;SDS011;61798;48.048;-1.928;2022-08-01T12:18:39;2.20;;;1.13;;
45049;SDS011;61798;48.048;-1.928;2022-08-01T12:20:46;1.23;;;1.00;;
45049;SDS011;61798;48.048;-1.928;2022-08-01T12:22:54;1.20;;;1.10;;
45049;SDS011;61798;48.048;-1.928;2022-08-01T12:25:11;2.83;;;1.02;;
45049;SDS011;61798;48.048;-1.928;2022-08-01T12:27:26;1.05;;;0.90;;
45049;SDS011;61798;48.048;-1.928;2022-08-01T12:29:39;2.05;;;1.20;;
45049;SDS011;61798;48.048;-1.928;2022-08-01T12:31:47;1.27;;;1.10;;
45049;SDS011;61798;48.048;-1.928;2022-08-01T12:33:54;1.25;;;0.93;;
45049;SDS011;61798;48.048;-1.928;2022-08-01T12:36:05;1.00;;;0.90;;
45049;SDS011;61798;48.048;-1.928;2022-08-01T12:38:15;1.77;;;1.20;;
45049;SDS011;61798;48.048;-1.928;2022-08-01T12:40:27;21.95;;;1.70;;
45049;SDS011;61798;48.048;-1.928;2022-08-01T12:42:37;32.67;;;3.00;;
45049;SDS011;61798;48.048;-1.928;2022-08-01T12:44:47;1.40;;;1.30;;
45049;SDS011;61798;48.048;-1.928;2022-08-01T12:46:57;75.28;;;6.18;;
45049;SDS011;61798;48.048;-1.928;2022-08-01T12:49:05;40.88;;;3.63;;
45049;SDS011;61798;48.048;-1.928;2022-08-01T12:51:13;47.83;;;3.55;;
45049;SDS011;61798;48.048;-1.928;2022-08-01T12:53:19;26.42;;;3.00;;
45049;SDS011;61798;48.048;-1.928;2022-08-01T12:55:26;1.50;;;1.10;;
45049;SDS011;61798;48.048;-1.928;2022-08-01T12:57:35;49.38;;;4.28;;
45049;SDS011;61798;48.048;-1.928;2022-08-01T12:59:43;86.63;;;5.93;;
45049;SDS011;61798;48.048;-1.928;2022-08-01T13:01:51;1.80;;;1.13;;
45049;SDS011;61798;48.048;-1.928;2022-08-01T13:04:01;1.10;;;0.90;;
45049;SDS011;61798;48.048;-1.928;2022-08-01T13:06:14;222.48;;;14.93;;
45049;SDS011;61798;48.048;-1.928;2022-08-01T13:08:32;290.17;;;22.13;;
45049;SDS011;61798;48.048;-1.928;2022-08-01T13:10:41;338.20;;;24.88;;
45049;SDS011;61798;48.048;-1.928;2022-08-01T13:12:52;36.83;;;3.80;;
45049;SDS011;61798;48.048;-1.928;2022-08-01T13:17:30;17.60;;;2.42;;
45049;SDS011;61798;48.048;-1.928;2022-08-01T13:19:44;6.18;;;1.15;;
45049;SDS011;61798;48.048;-1.928;2022-08-01T13:21:54;6.68;;;1.45;;
45049;SDS011;61798;48.048;-1.928;2022-08-01T13:24:11;30.02;;;3.25;;